Time;durP1;ratioP1;P1;durP2;ratioP2;P2;SDS_P1;SDS_P2;PMS_P1;PMS_P2;Temp;Humidity;BMP_temperature;BMP_pressure;BME280_temperature;BME280_humidity;BME280_pressure;Samples;Min_cycle;Max_cycle;Signal;HPM_P1;HPM_P2
2021/01/06 00:01:33;;;;;;;13.30;5.80;;;;;;;1.97;92.04;97647.20;1745063;82;21218;-66
2021/01/06 00:04:01;;;;;;;12.05;5.45;;;;;;;2.02;91.77;97649.03;1745142;82;21158;-66
2021/01/06 00:06:30;;;;;;;14.65;6.00;;;;;;;2.04;91.94;97654.86;1745221;82;21621;-67
2021/01/06 00:08:58;;;;;;;12.30;4.50;;;;;;;2.04;92.18;97656.14;1745266;82;21161;-67
2021/01/06 00:11:36;;;;;;;11.85;5.65;;;;;;;2.06;92.19;97653.49;1745169;82;21191;-67
2021/01/06 00:14:07;;;;;;;13.08;4.62;;;;;;;2.06;92.25;97654.32;1744972;82;21748;-65
2021/01/06 00:16:35;;;;;;;6.17;4.22;;;;;;;1.97;93.13;97656.17;1745361;82;21171;-65
2021/01/06 00:19:05;;;;;;;11.08;4.30;;;;;;;2.08;92.88;97678.08;1745422;82;21190;-65
2021/01/06 00:21:35;;;;;;;6.03;3.77;;;;;;;2.13;92.54;97677.34;1745307;82;21232;-65
2021/01/06 00:26:47;;;;;;;8.80;5.55;;;;;;;2.06;93.35;97695.30;1753690;81;21227;-65
2021/01/06 00:29:14;;;;;;;17.77;7.58;;;;;;;2.08;93.05;97716.95;1754156;82;21219;-64
2021/01/06 00:31:44;;;;;;;12.73;6.03;;;;;;;2.05;92.34;97716.70;1754446;82;21597;-65
2021/01/06 00:34:13;;;;;;;10.30;6.15;;;;;;;1.96;91.78;97712.59;1754284;82;21155;-68
2021/01/06 00:36:41;;;;;;;14.38;6.87;;;;;;;1.89;91.75;97712.16;1754315;82;21588;-65
2021/01/06 00:39:09;;;;;;;9.93;5.45;;;;;;;1.89;91.66;97714.73;1754622;82;21187;-64
2021/01/06 00:41:37;;;;;;;9.00;5.33;;;;;;;1.95;91.86;97707.10;1754454;82;21195;-64
2021/01/06 00:44:05;;;;;;;13.20;6.30;;;;;;;2.03;91.96;97712.11;1754275;82;21575;-64
2021/01/06 00:46:36;;;;;;;8.95;5.60;;;;;;;2.07;91.44;97705.88;1753762;82;21163;-64
2021/01/06 00:49:05;;;;;;;12.37;6.28;;;;;;;2.04;90.81;97696.30;1754010;81;21226;-64
2021/01/06 00:51:34;;;;;;;12.70;6.35;;;;;;;2.02;90.84;97698.97;1753740;81;21171;-67
2021/01/06 00:54:04;;;;;;;9.58;5.45;;;;;;;2.01;90.84;97703.72;1753306;82;21334;-67
2021/01/06 00:56:34;;;;;;;13.28;6.05;;;;;;;2.01;90.94;97702.44;1752983;82;21202;-65
2021/01/06 00:59:02;;;;;;;10.78;5.75;;;;;;;1.96;90.71;97699.34;1753272;82;21346;-67
2021/01/06 01:01:30;;;;;;;10.70;5.83;;;;;;;1.99;90.80;97704.26;1753161;82;21195;-67
2021/01/06 01:03:59;;;;;;;10.80;5.25;;;;;;;1.91;91.50;97700.89;1753726;82;21171;-67
2021/01/06 01:06:31;;;;;;;12.15;6.75;;;;;;;1.93;91.74;97703.38;1753125;82;21360;-67
2021/01/06 01:09:01;;;;;;;16.05;8.53;;;;;;;2.00;91.65;97706.36;1753009;82;21171;-67
2021/01/06 01:11:29;;;;;;;10.32;6.15;;;;;;;1.98;91.06;97708.22;1752975;82;21767;-67
2021/01/06 01:13:57;;;;;;;9.93;6.10;;;;;;;1.96;90.57;97705.73;1752931;82;21203;-65
2021/01/06 01:16:26;;;;;;;13.43;5.70;;;;;;;1.91;90.50;97702.63;1757547;81;21542;-67
2021/01/06 01:18:54;;;;;;;10.58;4.85;;;;;;;1.89;90.62;97703.20;1766326;81;21183;-66
2021/01/06 01:21:22;;;;;;;13.43;4.95;;;;;;;1.85;91.15;97692.33;1766350;81;21148;-66
2021/01/06 01:23:50;;;;;;;12.28;5.87;;;;;;;1.87;91.00;97701.18;1766209;81;21561;-65
2021/01/06 01:26:18;;;;;;;9.43;5.65;;;;;;;1.86;91.20;97700.84;1775698;80;21143;-66
2021/01/06 01:28:46;;;;;;;8.75;5.22;;;;;;;1.92;91.31;97706.84;1779494;80;21164;-66
2021/01/06 01:31:14;;;;;;;12.60;5.83;;;;;;;1.89;91.12;97705.77;1779362;80;21212;-66
2021/01/06 01:33:43;;;;;;;13.40;6.08;;;;;;;1.84;90.79;97700.09;1779870;80;21583;-67
2021/01/06 01:36:12;;;;;;;15.18;6.65;;;;;;;1.82;90.69;97692.53;1779599;80;21691;-66
2021/01/06 01:38:40;;;;;;;11.55;5.70;;;;;;;1.82;91.18;97695.55;1779793;80;21572;-65
2021/01/06 01:41:12;;;;;;;13.22;5.83;;;;;;;1.89;91.17;97699.36;1779534;80;21290;-65
2021/01/06 01:43:41;;;;;;;10.72;6.00;;;;;;;1.94;91.00;97704.20;1779745;80;21604;-68
2021/01/06 01:46:24;;;;;;;16.50;6.42;;;;;;;1.89;90.75;97700.64;1779594;80;21715;-65
2021/01/06 01:48:52;;;;;;;15.70;5.20;;;;;;;1.86;91.13;97699.56;1778994;80;21223;-65
2021/01/06 01:51:40;;;;;;;10.03;5.80;;;;;;;1.87;91.11;97697.34;1779518;80;21318;-68
2021/01/06 01:54:18;;;;;;;11.25;5.83;;;;;;;1.84;91.03;97696.26;1779898;80;21282;-66
2021/01/06 01:57:11;;;;;;;19.35;6.87;;;;;;;1.85;91.30;97695.34;1779684;80;21310;-65
2021/01/06 01:59:56;;;;;;;6.47;4.00;;;;;;;1.83;91.77;97690.31;1779828;80;21140;-65
2021/01/06 02:03:11;;;;;;;7.75;4.03;;;;;;;1.84;91.82;97684.28;1779584;80;21306;-65
2021/01/06 02:06:14;;;;;;;7.87;4.50;;;;;;;1.79;91.91;97696.53;1779573;80;21156;-66
2021/01/06 02:09:03;;;;;;;6.75;3.52;;;;;;;1.69;92.69;97688.25;1706324;84;21231;-68
2021/01/06 02:11:44;;;;;;;6.25;4.12;;;;;;;1.55;93.64;97689.56;1706480;83;21226;-67
2021/01/06 02:14:24;;;;;;;11.53;4.00;;;;;;;1.52;93.45;97682.08;1728536;82;21139;-67
2021/01/06 02:17:06;;;;;;;4.47;3.25;;;;;;;1.40;94.32;97684.92;1706312;84;21150;-65
2021/01/06 02:19:39;;;;;;;6.60;3.22;;;;;;;1.46;94.00;97690.11;1706218;83;21163;-65
2021/01/06 02:22:11;;;;;;;5.92;3.08;;;;;;;1.41;93.74;97691.21;1706212;84;21163;-65
2021/01/06 02:24:40;;;;;;;5.47;3.30;;;;;;;1.42;93.92;97690.76;1706171;84;21529;-65
2021/01/06 02:27:08;;;;;;;7.10;3.75;;;;;;;1.43;93.51;97688.57;1706315;83;21171;-64
2021/01/06 02:29:38;;;;;;;3.83;3.35;;;;;;;1.37;93.29;97687.65;1706650;84;21533;-65
2021/01/06 02:32:09;;;;;;;6.45;3.60;;;;;;;1.27;93.81;97691.23;1706340;83;21167;-66
2021/01/06 02:34:40;;;;;;;5.12;2.20;;;;;;;1.28;94.14;97706.13;1706420;84;21580;-66
2021/01/06 02:37:09;;;;;;;4.35;2.65;;;;;;;1.28;94.12;97703.57;1706349;84;21723;-67
2021/01/06 02:39:37;;;;;;;4.90;3.02;;;;;;;1.13;94.30;97704.48;1706440;84;21171;-65
2021/01/06 02:42:08;;;;;;;3.92;2.98;;;;;;;1.14;94.62;97693.31;1706376;84;21568;-65
2021/01/06 02:44:36;;;;;;;5.47;3.08;;;;;;;1.24;94.21;97688.87;1706250;84;21214;-67
2021/01/06 02:47:04;;;;;;;3.27;2.30;;;;;;;1.29;93.92;97688.56;1705944;84;21680;-68
2021/01/06 02:49:33;;;;;;;4.60;3.87;;;;;;;1.30;93.75;97680.81;1706148;84;21207;-67
2021/01/06 02:52:24;;;;;;;5.10;2.90;;;;;;;1.26;93.69;97678.07;1706048;83;21610;-67
2021/01/06 02:54:54;;;;;;;3.35;2.67;;;;;;;1.23;93.91;97673.14;1706304;84;21591;-65
2021/01/06 02:57:23;;;;;;;3.05;2.58;;;;;;;1.25;93.73;97662.80;1705972;84;21225;-67
2021/01/06 02:59:52;;;;;;;3.72;3.00;;;;;;;1.11;93.45;97670.49;1706151;84;21135;-65
2021/01/06 03:02:24;;;;;;;3.02;2.47;;;;;;;0.99;93.52;97675.87;1705874;84;21135;-65
2021/01/06 03:05:20;;;;;;;4.62;2.58;;;;;;;0.92;93.34;97683.55;1705777;82;21211;-66
2021/01/06 03:07:49;;;;;;;3.23;2.60;;;;;;;0.85;93.90;97686.11;1712968;83;21195;-65
2021/01/06 03:10:20;;;;;;;4.55;2.75;;;;;;;0.78;94.05;97694.56;1750396;82;21713;-66
2021/01/06 03:12:53;;;;;;;3.50;2.70;;;;;;;0.80;93.76;97698.32;1750299;82;21563;-66
2021/01/06 03:15:24;;;;;;;4.85;2.77;;;;;;;0.81;93.65;97691.85;1750190;82;21154;-68
2021/01/06 03:17:53;;;;;;;2.92;1.85;;;;;;;0.75;94.09;97689.64;1749851;82;21092;-68
2021/01/06 03:20:35;;;;;;;3.08;2.25;;;;;;;0.88;93.93;97698.70;1726905;82;21179;-67
2021/01/06 03:23:07;;;;;;;7.95;2.33;;;;;;;0.92;93.30;97693.78;1749603;81;21147;-65
2021/01/06 03:25:55;;;;;;;3.08;2.62;;;;;;;1.02;93.35;97698.70;1750432;82;21195;-66
2021/01/06 03:28:25;;;;;;;2.55;2.27;;;;;;;1.10;93.24;97692.68;1669663;84;21192;-65
2021/01/06 03:30:56;;;;;;;3.52;2.55;;;;;;;1.17;92.98;97691.40;1696945;84;21197;-65
2021/01/06 03:33:29;;;;;;;3.65;2.47;;;;;;;1.13;92.63;97694.26;1697240;84;21321;-64
2021/01/06 03:36:10;;;;;;;3.37;2.10;;;;;;;1.16;92.18;97695.34;1697423;84;21298;-64
2021/01/06 03:38:47;;;;;;;3.05;2.52;;;;;;;1.18;91.94;97685.83;1697702;84;21361;-62
2021/01/06 03:41:16;;;;;;;3.92;3.12;;;;;;;1.21;91.81;97678.80;1697416;84;22288;-64
2021/01/06 03:43:49;;;;;;;2.92;1.80;;;;;;;1.20;91.51;97666.12;1697561;84;21395;-64
2021/01/06 03:49:37;;;;;;;3.58;2.67;;;;;;;1.20;91.21;97640.09;1755148;82;21155;-65
2021/01/06 03:52:33;;;;;;;4.72;2.90;;;;;;;1.10;91.09;97662.00;1748283;81;21778;-64
2021/01/06 03:55:44;;;;;;;6.08;3.70;;;;;;;0.93;91.37;97668.58;1755658;81;21793;-62
2021/01/06 03:58:59;;;;;;;3.30;2.75;;;;;;;0.77;91.85;97655.05;1722061;83;21186;-65
2021/01/06 04:01:52;;;;;;;4.20;3.27;;;;;;;0.70;91.86;97660.96;1691570;85;21171;-64
2021/01/06 04:04:33;;;;;;;3.45;2.80;;;;;;;0.49;92.50;97654.55;1709681;83;21160;-64
2021/01/06 04:07:05;;;;;;;3.15;2.83;;;;;;;0.43;93.29;97659.99;1689051;83;21806;-62
2021/01/06 04:09:47;;;;;;;5.03;2.85;;;;;;;0.30;93.37;97657.79;1716605;83;21138;-67
2021/01/06 04:12:18;;;;;;;3.65;2.55;;;;;;;0.31;93.00;97659.44;1702531;84;21200;-65
2021/01/06 04:14:47;;;;;;;2.85;1.95;;;;;;;0.35;92.77;97656.60;1702127;84;21172;-65
2021/01/06 04:17:29;;;;;;;4.80;2.27;;;;;;;0.33;92.90;97658.44;1702276;84;21188;-64
2021/01/06 04:23:34;;;;;;;3.60;2.05;;;;;;;0.29;93.05;97650.58;1709576;82;21672;-64
2021/01/06 04:26:03;;;;;;;2.42;1.95;;;;;;;0.19;93.09;97660.95;1629689;88;21636;-63
2021/01/06 04:28:35;;;;;;;4.30;2.12;;;;;;;0.12;93.21;97658.84;1633972;88;21245;-64
2021/01/06 04:31:13;;;;;;;3.10;1.67;;;;;;;0.05;93.30;97652.40;1661423;86;21172;-63
2021/01/06 04:33:52;;;;;;;2.10;1.30;;;;;;;0.04;93.72;97657.95;1619524;86;21171;-63
2021/01/06 04:36:28;;;;;;;2.95;1.92;;;;;;;0.10;93.50;97660.19;1661281;86;21176;-64
2021/01/06 04:39:01;;;;;;;3.00;2.52;;;;;;;-0.15;94.24;97664.98;1661330;86;21211;-64
2021/01/06 04:41:41;;;;;;;7.22;3.08;;;;;;;-0.24;96.66;97662.51;1661458;86;21180;-63
2021/01/06 04:47:48;;;;;;;3.27;2.25;;;;;;;-0.28;96.70;97675.52;1685277;83;21191;-62
2021/01/06 04:50:49;;;;;;;2.60;2.40;;;;;;;-0.35;96.77;97666.06;1712369;83;21210;-63
2021/01/06 04:53:38;;;;;;;3.47;2.98;;;;;;;-0.24;96.70;97661.68;1711469;83;21577;-64
2021/01/06 04:56:46;;;;;;;3.10;1.92;;;;;;;-0.30;97.39;97670.48;1712020;83;21163;-64
2021/01/06 05:00:12;;;;;;;3.08;1.62;;;;;;;-0.23;97.39;97673.51;1741811;82;21157;-62
2021/01/06 05:03:05;;;;;;;2.50;1.57;;;;;;;-0.23;97.39;97673.51;1682858;84;21183;-64
2021/01/06 05:06:17;;;;;;;4.40;2.77;;;;;;;-0.20;96.32;97672.92;1682867;85;21168;-66
2021/01/06 05:08:59;;;;;;;1.35;1.25;;;;;;;-0.23;96.55;97673.06;1823791;77;23113;-67
2021/01/06 05:12:08;;;;;;;1.27;1.17;;;;;;;-0.41;96.39;97668.96;1797908;78;21139;-67
2021/01/06 05:15:12;;;;;;;2.25;1.70;;;;;;;-0.46;96.63;97663.28;1822705;79;21139;-63
2021/01/06 05:17:42;;;;;;;3.50;2.92;;;;;;;-0.57;97.12;97656.20;1823182;78;21274;-63
2021/01/06 05:20:10;;;;;;;4.65;2.60;;;;;;;-0.51;97.15;97663.52;1795840;79;21201;-63
2021/01/06 05:22:38;;;;;;;7.17;3.85;;;;;;;-0.50;97.01;97665.17;1822985;79;21270;-63
2021/01/06 05:25:13;;;;;;;3.83;2.98;;;;;;;-0.43;97.14;97667.41;1823226;79;21649;-64
2021/01/06 05:27:42;;;;;;;2.87;2.37;;;;;;;-0.44;97.82;97650.00;1822961;79;21147;-64
2021/01/06 05:30:32;;;;;;;4.37;2.98;;;;;;;-0.44;97.82;97650.00;1796118;79;21187;-64
2021/01/06 05:33:08;;;;;;;2.47;2.27;;;;;;;-0.42;97.70;97655.83;1823109;79;21306;-63
2021/01/06 05:35:41;;;;;;;3.33;2.35;;;;;;;-0.34;97.76;97649.86;1823368;78;21147;-66
2021/01/06 05:38:09;;;;;;;7.03;3.33;;;;;;;-0.28;97.72;97655.92;1823154;78;21547;-63
2021/01/06 05:40:41;;;;;;;3.50;2.75;;;;;;;-0.29;97.63;97653.45;1823110;79;21349;-67
2021/01/06 05:43:51;;;;;;;7.45;3.67;;;;;;;-0.28;97.85;97660.20;1822868;79;21116;-67
2021/01/06 05:46:30;;;;;;;5.17;2.90;;;;;;;-0.25;97.82;97661.30;1712569;83;21616;-65
2021/01/06 05:49:12;;;;;;;3.42;2.47;;;;;;;-0.24;97.68;97665.52;1722769;82;21192;-67
2021/01/06 05:52:00;;;;;;;3.30;2.40;;;;;;;-0.14;97.67;97661.53;1849677;76;23519;-68
2021/01/06 05:54:36;;;;;;;4.78;3.87;;;;;;;-0.13;97.40;97670.84;1827463;77;21279;-66
2021/01/06 05:57:35;;;;;;;4.10;2.55;;;;;;;-0.15;96.92;97672.64;1827308;77;21148;-67
2021/01/06 06:00:19;;;;;;;2.92;2.12;;;;;;;-0.14;97.18;97667.47;1758474;80;21131;-66
2021/01/06 06:03:23;;;;;;;2.98;2.15;;;;;;;-0.06;97.18;97663.22;1747303;81;21186;-67
2021/01/06 06:06:08;;;;;;;5.60;3.90;;;;;;;-0.08;96.94;97659.94;1761700;80;21115;-67
2021/01/06 06:12:29;;;;;;;4.05;2.98;;;;;;;-0.07;97.06;97657.28;1737281;82;21174;-64
2021/01/06 06:15:21;;;;;;;3.43;2.77;;;;;;;0.02;96.80;97664.89;1738037;82;21204;-63
2021/01/06 06:18:29;;;;;;;6.47;5.30;;;;;;;0.02;96.83;97664.89;1737764;81;21159;-64
2021/01/06 06:21:24;;;;;;;5.30;3.98;;;;;;;0.02;97.02;97663.62;1737079;82;21143;-64
2021/01/06 06:24:19;;;;;;;8.55;3.58;;;;;;;0.11;96.86;97665.67;1737611;81;21187;-67
2021/01/06 06:27:09;;;;;;;6.15;3.72;;;;;;;0.21;96.58;97660.41;1737708;81;21161;-67
2021/01/06 06:29:46;;;;;;;7.33;4.17;;;;;;;0.22;96.26;97661.23;1694821;82;21195;-64
2021/01/06 06:32:14;;;;;;;6.87;4.53;;;;;;;0.27;96.50;97681.75;1736843;81;21167;-64
2021/01/06 06:34:44;;;;;;;4.72;2.67;;;;;;;0.30;96.42;97679.05;1736764;81;21140;-67
2021/01/06 06:37:17;;;;;;;4.85;3.42;;;;;;;0.31;96.43;97680.67;1736737;82;21143;-66
2021/01/06 06:39:50;;;;;;;6.00;2.95;;;;;;;0.40;96.53;97678.88;1736628;82;21167;-68
2021/01/06 06:42:38;;;;;;;7.92;5.72;;;;;;;0.55;97.06;97673.80;1819274;79;22976;-68
2021/01/06 06:45:39;;;;;;;5.10;3.27;;;;;;;0.54;96.65;97681.12;1787194;79;21751;-67
2021/01/06 06:48:34;;;;;;;6.65;3.72;;;;;;;0.67;96.84;97676.93;1792601;80;21280;-67
2021/01/06 06:51:17;;;;;;;6.25;3.45;;;;;;;0.50;97.01;97676.64;1792376;80;21175;-67
2021/01/06 06:54:07;;;;;;;2.85;2.33;;;;;;;0.58;96.56;97684.69;1750486;80;21144;-67
2021/01/06 06:56:49;;;;;;;5.00;4.22;;;;;;;0.55;96.37;97685.30;1792489;80;21353;-67
2021/01/06 06:59:41;;;;;;;7.58;3.70;;;;;;;0.61;96.39;97694.73;1792434;80;21147;-64
2021/01/06 07:02:09;;;;;;;5.45;3.02;;;;;;;0.66;95.96;97708.53;1792609;80;21214;-64
2021/01/06 07:04:47;;;;;;;4.78;4.15;;;;;;;0.61;96.14;97707.51;1792488;80;21195;-64
2021/01/06 07:07:51;;;;;;;3.75;2.17;;;;;;;0.59;96.26;97706.75;1792646;80;21390;-64
2021/01/06 07:10:27;;;;;;;5.15;2.95;;;;;;;0.53;96.50;97706.29;1792632;80;21298;-64
2021/01/06 07:12:59;;;;;;;;;;;;;;;0.53;96.75;97705.02;1795038;80;21573;-64
2021/01/06 07:15:41;;;;;;;2.65;2.40;;;;;;;0.58;96.33;97703.03;1792234;79;20250;-64
2021/01/06 07:18:26;;;;;;;4.72;3.00;;;;;;;0.61;96.32;97704.13;1792597;80;21290;-67
2021/01/06 07:21:16;;;;;;;6.90;4.50;;;;;;;0.56;96.42;97711.22;1792400;80;21290;-67
2021/01/06 07:24:05;;;;;;;6.28;3.85;;;;;;;0.58;96.54;97705.59;1792286;80;21667;-67
2021/01/06 07:26:41;;;;;;;1.80;1.42;;;;;;;0.67;96.56;97708.88;1791542;79;21325;-67
2021/01/06 07:29:20;;;;;;;5.15;3.52;;;;;;;0.79;96.43;97709.00;1779641;79;22718;-67
2021/01/06 07:32:05;;;;;;;6.70;2.60;;;;;;;0.74;96.23;97711.47;1753003;81;21199;-67
2021/01/06 07:34:45;;;;;;;2.50;2.25;;;;;;;0.72;96.27;97716.66;1753335;82;21188;-66
2021/01/06 07:37:25;;;;;;;4.53;3.67;;;;;;;0.81;95.95;97719.14;1752989;81;21164;-66
2021/01/06 07:40:37;;;;;;;5.05;3.90;;;;;;;0.76;96.07;97721.95;1752854;82;21557;-64
2021/01/06 07:43:31;;;;;;;1.80;1.52;;;;;;;0.77;96.04;97715.95;1664074;86;21203;-63
2021/01/06 07:46:16;;;;;;;5.08;3.22;;;;;;;0.79;96.42;97714.11;1758991;81;21162;-64
2021/01/06 07:49:01;;;;;;;4.75;4.00;;;;;;;0.85;96.48;97716.78;1730826;81;21143;-64
2021/01/06 07:51:53;;;;;;;4.78;2.83;;;;;;;0.87;96.44;97710.66;1730599;81;21178;-64
2021/01/06 07:54:51;;;;;;;3.50;2.83;;;;;;;0.82;96.29;97713.09;1711985;83;21180;-63
2021/01/06 07:57:58;;;;;;;6.25;3.67;;;;;;;0.97;96.26;97708.40;1730724;81;21600;-64
2021/01/06 08:01:05;;;;;;;6.10;2.87;;;;;;;0.99;96.13;97704.45;1650158;85;21151;-64
2021/01/06 08:03:50;;;;;;;3.40;2.45;;;;;;;1.11;95.97;97713.97;1650193;85;21185;-68
2021/01/06 08:06:20;;;;;;;7.20;3.85;;;;;;;1.21;96.41;97707.37;1650129;85;22238;-66
2021/01/06 08:09:10;;;;;;;4.50;3.02;;;;;;;1.20;96.14;97707.86;1685640;85;21192;-67
2021/01/06 08:11:47;;;;;;;6.78;3.22;;;;;;;1.38;96.71;97705.48;1698977;83;21171;-65
2021/01/06 08:14:42;;;;;;;5.60;4.05;;;;;;;1.17;96.15;97699.07;1698994;84;21584;-65
2021/01/06 08:17:26;;;;;;;5.75;3.90;;;;;;;1.30;95.45;97706.84;1696116;84;21163;-72
2021/01/06 08:20:09;;;;;;;5.50;2.80;;;;;;;1.36;95.31;97711.12;1670702;84;21620;-70
2021/01/06 08:23:03;;;;;;;4.92;2.85;;;;;;;1.38;95.47;97713.61;1671031;84;21166;-72
2021/01/06 08:25:34;;;;;;;5.60;3.70;;;;;;;1.44;95.46;97712.77;1706066;84;21297;-71
2021/01/06 08:28:25;;;;;;;7.67;4.25;;;;;;;1.48;94.61;97717.72;1672257;86;21607;-72
2021/01/06 08:34:00;;;;;;;3.08;2.12;;;;;;;1.68;95.58;97727.09;1652962;86;21235;-65
2021/01/06 08:36:53;;;;;;;5.58;3.77;;;;;;;1.95;93.91;97714.33;1652684;86;21660;-63
2021/01/06 08:39:23;;;;;;;3.35;2.15;;;;;;;1.91;93.41;97718.82;1689968;85;21139;-64
2021/01/06 08:41:54;;;;;;;3.67;2.58;;;;;;;2.01;92.66;97705.00;1689774;84;21584;-63
2021/01/06 08:44:49;;;;;;;7.37;4.10;;;;;;;2.05;92.80;97706.91;1689531;83;21604;-64
2021/01/06 08:47:37;;;;;;;6.20;3.65;;;;;;;2.12;92.26;97714.11;1663115;85;21155;-64
2021/01/06 08:50:28;;;;;;;5.47;3.22;;;;;;;2.09;92.20;97709.64;1670081;85;21140;-64
2021/01/06 08:53:00;;;;;;;3.12;2.25;;;;;;;2.31;91.85;97707.35;1662015;85;21151;-64
2021/01/06 08:55:39;;;;;;;5.55;3.30;;;;;;;2.39;91.32;97710.25;1689490;85;21220;-64
2021/01/06 08:58:11;;;;;;;8.20;4.10;;;;;;;2.64;90.33;97706.94;1689502;85;21591;-64
2021/01/06 09:00:56;;;;;;;8.83;4.78;;;;;;;2.83;89.88;97702.24;1689819;83;21199;-65
2021/01/06 09:03:47;;;;;;;8.73;4.30;;;;;;;3.04;89.15;97698.23;1689555;83;21156;-72
2021/01/06 09:06:18;;;;;;;5.33;3.22;;;;;;;3.26;87.91;97696.34;1688450;85;21179;-68
2021/01/06 09:09:00;;;;;;;6.20;4.33;;;;;;;3.20;87.07;97692.89;1689220;83;21156;-63
2021/01/06 09:22:26;;;;;;;4.62;3.17;;;;;;;3.73;84.95;97689.23;1676978;85;21136;-65
2021/01/06 09:28:37;;;;;;;4.35;3.12;;;;;;;4.21;81.66;97671.61;1676983;85;21132;-65
2021/01/06 09:34:49;;;;;;;7.25;3.52;;;;;;;4.76;80.08;97664.55;1539137;93;21600;-64
2021/01/06 09:37:30;;;;;;;4.37;2.45;;;;;;;5.09;78.39;97670.69;1823021;77;23065;-65
2021/01/06 09:40:14;;;;;;;4.72;2.60;;;;;;;5.13;77.56;97666.48;1827079;78;21143;-65
2021/01/06 09:42:44;;;;;;;6.53;2.70;;;;;;;5.48;79.96;97674.09;1827166;78;21331;-66
2021/01/06 09:45:37;;;;;;;6.33;2.62;;;;;;;6.28;75.67;97659.63;1827228;78;21325;-65
2021/01/06 09:48:11;;;;;;;2.35;2.15;;;;;;;6.60;74.24;97659.14;1742782;82;21168;-65
2021/01/06 09:51:02;;;;;;;3.40;2.40;;;;;;;6.81;73.21;97653.49;1742693;82;21228;-64
2021/01/06 09:53:32;;;;;;;3.67;2.55;;;;;;;6.79;72.60;97654.11;1675851;85;21177;-64
2021/01/06 09:56:01;;;;;;;7.60;3.00;;;;;;;7.14;70.18;97644.72;1675609;85;21202;-64
2021/01/06 09:58:33;;;;;;;5.70;2.90;;;;;;;7.03;70.06;97645.63;1676022;86;21207;-65
2021/01/06 10:01:13;;;;;;;3.02;2.60;;;;;;;7.45;71.01;97637.30;1675712;86;21325;-64
2021/01/06 10:03:45;;;;;;;8.35;4.70;;;;;;;7.62;68.21;97634.56;1675881;85;21348;-68
2021/01/06 10:06:39;;;;;;;6.37;3.70;;;;;;;7.52;68.12;97624.19;1675697;86;21726;-65
2021/01/06 10:09:15;;;;;;;3.15;2.40;;;;;;;7.26;69.29;97623.02;1675949;85;21169;-65
2021/01/06 10:12:09;;;;;;;4.78;2.45;;;;;;;7.13;68.15;97614.20;1675979;86;21170;-68
2021/01/06 10:14:48;;;;;;;3.85;2.17;;;;;;;7.55;67.94;97614.87;1676502;85;21188;-68
2021/01/06 10:17:22;;;;;;;3.77;2.70;;;;;;;7.59;68.09;97603.80;1733936;83;21131;-68
2021/01/06 10:20:00;;;;;;;5.17;2.95;;;;;;;7.34;69.41;97605.11;1734075;82;21155;-71
2021/01/06 10:22:54;;;;;;;6.90;3.30;;;;;;;7.51;68.50;97601.88;1779995;79;23027;-68
2021/01/06 10:25:48;;;;;;;5.33;2.67;;;;;;;7.28;68.83;97603.03;1753406;82;21160;-67
2021/01/06 10:28:27;;;;;;;3.83;2.30;;;;;;;7.32;69.34;97606.17;1724102;82;21200;-67
2021/01/06 10:34:08;;;;;;;6.00;4.00;;;;;;;6.81;70.15;97609.62;1693921;85;21715;-68
2021/01/06 10:39:52;;;;;;;4.05;2.10;;;;;;;7.12;69.83;97595.77;1673871;85;21582;-66
2021/01/06 10:42:26;;;;;;;5.97;3.72;;;;;;;6.59;70.92;97593.82;1676769;85;21143;-67
2021/01/06 10:45:08;;;;;;;4.25;2.80;;;;;;;6.48;72.00;97590.02;1676922;85;21205;-65
2021/01/06 10:47:50;;;;;;;6.62;3.10;;;;;;;6.48;72.87;97586.16;1676836;85;21143;-64
2021/01/06 10:50:40;;;;;;;6.65;3.17;;;;;;;6.19;73.28;97592.39;1676658;85;21154;-67
2021/01/06 10:53:29;;;;;;;9.33;3.62;;;;;;;5.83;74.99;97591.47;1676973;85;21138;-67
2021/01/06 10:56:06;;;;;;;5.70;2.37;;;;;;;5.92;74.84;97579.62;1722466;83;21619;-67
2021/01/06 10:58:56;;;;;;;7.17;2.80;;;;;;;6.04;74.82;97574.30;1722327;83;21695;-67
2021/01/06 11:01:33;;;;;;;5.08;2.85;;;;;;;6.07;75.58;97571.47;1722579;83;21160;-67
2021/01/06 11:04:36;;;;;;;5.65;3.12;;;;;;;6.18;75.52;97566.28;1721633;83;21135;-67
2021/01/06 11:07:40;;;;;;;7.35;3.35;;;;;;;6.09;76.20;97557.17;1700909;84;21175;-67
2021/01/06 11:10:22;;;;;;;7.90;2.87;;;;;;;6.25;75.36;97553.70;1702749;84;21234;-67
2021/01/06 11:13:23;;;;;;;2.27;2.00;;;;;;;6.47;74.58;97549.69;1702381;84;21171;-69
2021/01/06 11:16:02;;;;;;;6.28;3.62;;;;;;;6.48;72.81;97538.44;1702424;84;21802;-68
2021/01/06 11:18:35;;;;;;;4.22;3.10;;;;;;;7.37;69.51;97528.64;1702129;84;21567;-67
2021/01/06 11:21:40;;;;;;;6.30;2.37;;;;;;;8.47;66.79;97525.66;1702661;84;21651;-67
2021/01/06 11:24:51;;;;;;;3.75;2.00;;;;;;;9.23;62.07;97521.11;1717926;83;21186;-67
2021/01/06 11:27:49;;;;;;;8.83;2.22;;;;;;;9.19;63.25;97527.53;1726935;83;21643;-67
2021/01/06 11:30:37;;;;;;;4.30;2.25;;;;;;;9.18;59.65;97519.45;1717283;83;21576;-67
2021/01/06 11:33:27;;;;;;;5.72;2.83;;;;;;;9.97;58.99;97507.41;1726244;83;21191;-67
2021/01/06 11:36:16;;;;;;;7.22;2.92;;;;;;;10.15;57.99;97509.22;1726253;83;21197;-67
2021/01/06 11:38:58;;;;;;;3.80;2.30;;;;;;;11.03;56.00;97509.39;1725574;83;21317;-67
2021/01/06 11:41:31;;;;;;;3.10;1.92;;;;;;;11.53;53.03;97514.58;1726033;83;21171;-67
2021/01/06 11:44:11;;;;;;;3.55;2.10;;;;;;;11.66;52.25;97511.05;1726445;83;21730;-67
2021/01/06 11:46:47;;;;;;;4.87;3.12;;;;;;;11.92;52.91;97498.73;1726352;83;21155;-67
2021/01/06 11:49:44;;;;;;;5.50;2.62;;;;;;;11.63;52.65;97497.88;1726717;82;21178;-68
2021/01/06 11:52:48;;;;;;;2.95;2.30;;;;;;;11.17;54.63;97488.81;1726391;83;21218;-68
2021/01/06 11:55:31;;;;;;;3.37;1.52;;;;;;;12.09;52.14;97499.56;1734100;83;21281;-68
2021/01/06 11:58:13;;;;;;;4.37;2.45;;;;;;;11.65;50.88;97493.31;1725802;83;21552;-69
2021/01/06 12:00:56;;;;;;;3.85;2.75;;;;;;;12.33;50.51;97499.55;1725851;83;21151;-69
2021/01/06 12:03:44;;;;;;;5.33;2.85;;;;;;;10.97;54.33;97494.44;1668741;85;21137;-68
2021/01/06 12:06:33;;;;;;;3.10;2.22;;;;;;;10.52;55.06;97495.98;1697410;84;21183;-67
2021/01/06 12:09:27;;;;;;;4.40;2.12;;;;;;;11.06;53.72;97495.59;1696311;83;21307;-67
2021/01/06 12:12:21;;;;;;;6.78;2.20;;;;;;;11.12;53.27;97485.89;1696052;84;21283;-67
2021/01/06 12:17:58;;;;;;;8.30;3.67;;;;;;;11.99;51.67;97478.07;1696552;84;21155;-67
2021/01/06 12:20:36;;;;;;;6.37;2.80;;;;;;;11.59;53.18;97479.67;1667405;86;21219;-67
2021/01/06 12:23:27;;;;;;;17.45;2.60;;;;;;;11.40;53.34;97482.53;1696682;84;21207;-67
2021/01/06 12:25:58;;;;;;;7.87;2.65;;;;;;;10.54;55.47;97480.61;1695633;84;21178;-67
2021/01/06 12:28:52;;;;;;;7.37;3.62;;;;;;;10.99;55.23;97469.10;1696746;84;21231;-68
2021/01/06 12:31:28;;;;;;;3.10;2.25;;;;;;;10.36;56.20;97464.25;1696649;84;21183;-67
2021/01/06 12:34:16;;;;;;;5.60;2.27;;;;;;;10.00;57.51;97457.00;1695212;84;21163;-67
2021/01/06 12:40:19;;;;;;;4.37;2.77;;;;;;;9.75;58.16;97452.13;1768751;81;21287;-67
2021/01/06 12:42:55;;;;;;;2.95;1.80;;;;;;;9.45;59.39;97451.23;1771131;81;21729;-68
2021/01/06 12:45:40;;;;;;;7.25;2.70;;;;;;;9.56;59.35;97447.59;1771416;81;21354;-67
2021/01/06 12:48:17;;;;;;;7.55;2.83;;;;;;;9.23;60.28;97455.52;1771194;81;21332;-68
2021/01/06 12:51:08;;;;;;;4.40;2.30;;;;;;;9.74;59.57;97450.50;1770798;80;21417;-66
2021/01/06 12:54:04;;;;;;;3.75;1.72;;;;;;;9.77;58.30;97448.89;1771370;81;21125;-66
2021/01/06 12:56:39;;;;;;;11.12;2.72;;;;;;;10.07;57.95;97454.16;1770384;81;21252;-67
2021/01/06 12:59:14;;;;;;;6.10;2.83;;;;;;;9.43;59.60;97455.73;1771311;81;21299;-67
2021/01/06 13:02:08;;;;;;;6.42;2.45;;;;;;;9.30;59.27;97463.85;1771141;81;21538;-66
2021/01/06 13:04:42;;;;;;;3.33;1.20;;;;;;;8.98;59.17;97465.64;1768475;81;21200;-67
2021/01/06 13:07:15;;;;;;;3.87;1.67;;;;;;;8.56;60.15;97469.14;1770469;80;21280;-67
2021/01/06 13:10:10;;;;;;;8.43;3.12;;;;;;;8.38;61.61;97464.39;1771488;81;21141;-67
2021/01/06 13:13:28;;;;;;;3.42;2.02;;;;;;;8.17;62.28;97469.39;1769726;80;21261;-67
2021/01/06 13:15:59;;;;;;;;;;;;;;;8.13;62.13;97468.05;1704972;83;21171;-66
2021/01/06 13:18:48;;;;;;;5.97;3.25;;;;;;;7.79;63.53;97460.72;1673126;85;20193;-66
2021/01/06 13:21:27;;;;;;;4.87;1.82;;;;;;;7.61;64.73;97466.25;1702715;84;21167;-65
2021/01/06 13:24:00;;;;;;;4.65;1.75;;;;;;;7.76;63.80;97467.94;1737748;81;21166;-66
2021/01/06 13:26:56;;;;;;;3.35;1.80;;;;;;;7.80;63.38;97468.83;1737839;81;21285;-68
2021/01/06 13:29:55;;;;;;;5.05;2.62;;;;;;;7.93;63.56;97469.84;1737853;82;21203;-65
2021/01/06 13:32:49;;;;;;;7.78;2.02;;;;;;;7.73;64.39;97465.16;1737549;81;21143;-67
2021/01/06 13:35:38;;;;;;;4.75;2.50;;;;;;;7.54;65.20;97463.41;1714069;81;21174;-68